Time;durP1;ratioP1;P1;durP2;ratioP2;P2;SDS_P1;SDS_P2;PMS_P1;PMS_P2;Temp;Humidity;BMP_temperature;BMP_pressure;BME280_temperature;BME280_humidity;BME280_pressure;Samples;Min_cycle;Max_cycle;Signal;HPM_P1;HPM_P2
2022/08/14 00:00:49;;;;;;;7.63;4.85;;;22.10;96.10;;;;;;5055171;28;20052;-69
2022/08/14 00:03:27;;;;;;;16.98;5.35;;;22.00;96.60;;;;;;5055253;28;20451;-68
2022/08/14 00:05:54;;;;;;;10.20;5.00;;;22.00;97.10;;;;;;5037614;28;20044;-68
2022/08/14 00:08:22;;;;;;;6.55;4.95;;;22.00;97.30;;;;;;5055586;28;20041;-68
2022/08/14 00:10:49;;;;;;;10.05;5.15;;;22.00;97.60;;;;;;5064684;28;20082;-69
2022/08/14 00:13:17;;;;;;;13.70;5.25;;;21.90;97.90;;;;;;5056800;28;20037;-67
2022/08/14 00:15:46;;;;;;;8.68;5.50;;;21.90;98.40;;;;;;5068267;28;20041;-67
2022/08/14 00:18:15;;;;;;;9.02;5.85;;;21.80;98.60;;;;;;5054568;28;20083;-68
2022/08/14 00:20:42;;;;;;;9.55;5.78;;;21.80;99.10;;;;;;5054014;28;20128;-67
2022/08/14 00:23:09;;;;;;;7.03;5.68;;;21.80;99.50;;;;;;5054505;28;20083;-68
2022/08/14 00:25:35;;;;;;;10.32;6.05;;;21.80;99.70;;;;;;5053954;28;20090;-67
2022/08/14 00:28:02;;;;;;;7.65;5.53;;;21.80;99.90;;;;;;5053812;28;20124;-67
2022/08/14 00:30:28;;;;;;;8.93;6.63;;;21.70;99.90;;;;;;5053529;28;20565;-68
2022/08/14 00:32:54;;;;;;;8.13;6.13;;;21.70;99.90;;;;;;5036346;28;20330;-68
2022/08/14 00:35:20;;;;;;;10.60;6.25;;;21.70;99.90;;;;;;5053454;28;20095;-67
2022/08/14 00:37:46;;;;;;;9.02;6.07;;;21.70;99.90;;;;;;5069889;28;20428;-67
2022/08/14 00:40:15;;;;;;;7.93;6.35;;;21.70;99.90;;;;;;5039293;28;20580;-68
2022/08/14 00:42:41;;;;;;;9.52;6.22;;;21.70;99.90;;;;;;5036318;28;20139;-68
2022/08/14 00:45:09;;;;;;;11.68;6.10;;;21.70;99.90;;;;;;5053630;28;20124;-69
2022/08/14 00:47:35;;;;;;;10.35;6.20;;;21.60;99.90;;;;;;5035826;28;20049;-67
2022/08/14 00:50:03;;;;;;;7.95;5.80;;;21.60;99.90;;;;;;5019207;28;20067;-67
2022/08/14 00:52:33;;;;;;;9.93;6.10;;;21.60;99.90;;;;;;5050523;28;20052;-68
2022/08/14 00:54:59;;;;;;;7.43;5.93;;;21.60;99.90;;;;;;5036059;28;20045;-68
2022/08/14 00:57:31;;;;;;;12.02;6.85;;;21.60;99.90;;;;;;5052269;28;20080;-68
2022/08/14 00:59:57;;;;;;;10.45;6.78;;;21.60;99.90;;;;;;5052980;28;20052;-68
2022/08/14 01:02:24;;;;;;;12.43;6.50;;;21.50;99.90;;;;;;5035095;28;20040;-67
2022/08/14 01:04:57;;;;;;;10.00;7.07;;;21.50;99.90;;;;;;5053523;28;20550;-68
2022/08/14 01:07:25;;;;;;;7.00;5.97;;;21.50;99.90;;;;;;5053315;28;20476;-68
2022/08/14 01:10:00;;;;;;;;;;;21.50;99.90;;;;;;5035573;28;20045;-67
2022/08/14 01:12:27;;;;;;;8.35;6.75;;;21.50;99.90;;;;;;5066268;28;19943;-68
2022/08/14 01:14:55;;;;;;;8.60;6.28;;;21.50;99.90;;;;;;5035003;28;20056;-68
2022/08/14 01:17:22;;;;;;;11.02;7.05;;;21.50;99.90;;;;;;5053086;28;20049;-68
2022/08/14 01:22:34;;;;;;;8.55;7.50;;;21.40;99.90;;;;;;5035312;28;20049;-67
2022/08/14 01:25:00;;;;;;;10.32;7.05;;;21.50;99.90;;;;;;5035354;28;20053;-68
2022/08/14 01:27:27;;;;;;;9.27;7.40;;;21.40;99.90;;;;;;5035191;28;20094;-68
2022/08/14 01:29:57;;;;;;;10.20;7.43;;;21.40;99.90;;;;;;5035686;28;20045;-68
2022/08/14 01:32:23;;;;;;;10.73;6.73;;;21.50;99.90;;;;;;5052725;28;20037;-68
2022/08/14 01:34:53;;;;;;;9.10;6.97;;;21.50;99.90;;;;;;5053010;28;20052;-68
2022/08/14 01:37:23;;;;;;;12.32;6.80;;;21.50;99.90;;;;;;5027260;28;20037;-68
2022/08/14 01:39:55;;;;;;;11.82;7.55;;;21.50;99.90;;;;;;5052665;28;20486;-68
2022/08/14 01:42:20;;;;;;;9.85;7.35;;;21.40;99.90;;;;;;5052319;28;20052;-67
2022/08/14 01:44:57;;;;;;;12.68;8.77;;;21.40;99.90;;;;;;5072130;28;20040;-68
2022/08/14 01:47:23;;;;;;;9.07;7.50;;;21.40;99.90;;;;;;5044216;28;20044;-68
2022/08/14 01:49:53;;;;;;;10.25;7.95;;;21.40;99.90;;;;;;5051526;28;20045;-68
2022/08/14 01:52:20;;;;;;;9.30;7.25;;;21.40;99.90;;;;;;5034682;28;20071;-67
2022/08/14 01:54:48;;;;;;;16.98;8.00;;;21.30;99.90;;;;;;5046453;28;20509;-68
2022/08/14 01:57:14;;;;;;;10.10;7.88;;;21.30;99.90;;;;;;5072672;28;20045;-69
2022/08/14 01:59:42;;;;;;;12.43;8.23;;;21.30;99.90;;;;;;5072716;28;20437;-67
2022/08/14 02:02:11;;;;;;;13.70;7.55;;;21.30;99.90;;;;;;5068476;28;20048;-68
2022/08/14 02:04:37;;;;;;;10.43;7.55;;;21.30;99.90;;;;;;5056647;28;20051;-68
2022/08/14 02:07:05;;;;;;;10.90;8.60;;;21.20;99.90;;;;;;5063390;28;20460;-68
2022/08/14 02:09:34;;;;;;;8.32;7.43;;;21.20;99.90;;;;;;5056017;28;20402;-67
2022/08/14 02:12:01;;;;;;;10.98;8.38;;;21.20;99.90;;;;;;5048581;28;20072;-69
2022/08/14 02:14:34;;;;;;;17.75;9.05;;;21.20;99.90;;;;;;5049640;28;20075;-68
2022/08/14 02:17:00;;;;;;;10.73;8.63;;;21.10;99.90;;;;;;5054086;28;20037;-67
2022/08/14 02:19:29;;;;;;;11.15;8.82;;;21.10;99.90;;;;;;5052181;28;20045;-68
2022/08/14 02:21:58;;;;;;;10.25;7.85;;;21.10;99.90;;;;;;5034548;28;20045;-68
2022/08/14 02:24:28;;;;;;;12.18;8.63;;;21.10;99.90;;;;;;5052088;28;20056;-68
2022/08/14 02:26:57;;;;;;;9.77;8.52;;;21.00;99.90;;;;;;5052603;28;20045;-68
2022/08/14 02:29:24;;;;;;;13.63;7.85;;;21.00;99.90;;;;;;5034311;28;20072;-69
2022/08/14 02:31:53;;;;;;;13.52;8.25;;;21.00;99.90;;;;;;5052222;28;20068;-68
2022/08/14 02:34:31;;;;;;;10.35;8.80;;;21.00;99.90;;;;;;5038154;28;20497;-68
2022/08/14 02:37:04;;;;;;;9.13;8.07;;;21.00;99.90;;;;;;5064498;28;20049;-68
2022/08/14 02:39:33;;;;;;;12.68;8.60;;;21.00;99.90;;;;;;5072228;28;20064;-68
2022/08/14 02:42:07;;;;;;;9.80;7.85;;;21.00;99.90;;;;;;5063426;28;20132;-68
2022/08/14 02:44:33;;;;;;;10.88;8.65;;;21.00;99.90;;;;;;5051836;28;20179;-69
2022/08/14 02:47:00;;;;;;;10.48;8.75;;;20.90;99.90;;;;;;5050960;28;20106;-68
2022/08/14 02:49:27;;;;;;;13.82;8.55;;;20.90;99.90;;;;;;5033961;28;20465;-67
2022/08/14 02:51:54;;;;;;;9.85;8.85;;;20.90;99.90;;;;;;5051933;28;20084;-69
2022/08/14 02:54:25;;;;;;;11.88;9.43;;;20.90;99.90;;;;;;5052369;28;20048;-68
2022/08/14 02:56:55;;;;;;;15.82;8.88;;;20.90;99.90;;;;;;5021214;28;20395;-68
2022/08/14 02:59:31;;;;;;;13.93;9.27;;;20.90;99.90;;;;;;5034315;28;20168;-67
2022/08/14 03:01:57;;;;;;;14.02;8.88;;;20.80;99.90;;;;;;5054803;28;20037;-69
2022/08/14 03:04:29;;;;;;;12.32;9.77;;;20.90;99.90;;;;;;5038594;28;20041;-67
2022/08/14 03:06:55;;;;;;;12.60;8.77;;;20.80;99.90;;;;;;5038868;28;20055;-68
2022/08/14 03:09:22;;;;;;;18.65;9.20;;;20.90;99.90;;;;;;5056191;28;20475;-68
2022/08/14 03:11:48;;;;;;;12.10;8.75;;;20.90;99.90;;;;;;5055141;28;20033;-68
2022/08/14 03:14:14;;;;;;;10.75;8.85;;;20.80;99.90;;;;;;5038212;28;20045;-69
2022/08/14 03:16:40;;;;;;;13.00;8.68;;;20.80;99.90;;;;;;5055683;28;20040;-68
2022/08/14 03:19:08;;;;;;;10.88;8.27;;;20.80;99.90;;;;;;5037556;28;20079;-68
2022/08/14 03:21:35;;;;;;;11.57;9.27;;;20.80;99.90;;;;;;5021186;28;20084;-68
2022/08/14 03:26:35;;;;;;;12.65;8.57;;;20.80;99.90;;;;;;5055370;28;19921;-68
2022/08/14 03:29:02;;;;;;;11.05;9.10;;;20.70;99.90;;;;;;5037493;28;20507;-68
2022/08/14 03:31:28;;;;;;;10.68;8.30;;;20.70;99.90;;;;;;5054855;28;20503;-68
2022/08/14 03:33:55;;;;;;;13.70;8.68;;;20.70;99.90;;;;;;5055743;28;20041;-69
2022/08/14 03:36:21;;;;;;;11.20;9.13;;;20.70;99.90;;;;;;5057883;28;20530;-69
2022/08/14 03:38:49;;;;;;;14.98;9.02;;;20.70;99.90;;;;;;5055065;28;20064;-68
2022/08/14 03:41:17;;;;;;;9.60;8.60;;;20.70;99.90;;;;;;5037252;28;20045;-68
2022/08/14 03:43:44;;;;;;;15.70;9.27;;;20.70;99.90;;;;;;5033252;28;20422;-67
2022/08/14 03:46:11;;;;;;;11.30;9.60;;;20.70;99.90;;;;;;5074445;28;20593;-67
2022/08/14 03:48:38;;;;;;;;;;;20.60;99.90;;;;;;5051942;28;20048;-68
2022/08/14 03:51:08;;;;;;;12.57;10.05;;;20.60;99.90;;;;;;5053570;28;20371;-67
2022/08/14 03:53:40;;;;;;;12.48;9.95;;;20.60;99.90;;;;;;5036960;28;20067;-68
2022/08/14 03:56:13;;;;;;;14.80;9.85;;;20.60;99.90;;;;;;5021423;28;20118;-68
2022/08/14 03:58:45;;;;;;;15.25;10.05;;;20.50;99.90;;;;;;5054465;28;20381;-67
2022/08/14 04:01:12;;;;;;;13.32;10.25;;;20.50;99.90;;;;;;5054457;28;20091;-68
2022/08/14 04:03:38;;;;;;;14.13;9.50;;;20.50;99.90;;;;;;5036546;28;20043;-67
2022/08/14 04:06:07;;;;;;;13.00;10.02;;;20.50;99.90;;;;;;5054455;28;20041;-69
2022/08/14 04:08:40;;;;;;;14.68;10.20;;;20.40;99.90;;;;;;5053634;28;20039;-69
2022/08/14 04:11:07;;;;;;;11.68;9.77;;;20.40;99.90;;;;;;5054664;28;20510;-68
2022/08/14 04:13:36;;;;;;;14.60;10.85;;;20.50;99.90;;;;;;5053613;28;20076;-66
2022/08/14 04:16:04;;;;;;;13.52;10.95;;;20.40;99.90;;;;;;5019790;28;20045;-68
2022/08/14 04:18:31;;;;;;;13.75;9.85;;;20.40;99.90;;;;;;5052936;28;20041;-67
2022/08/14 04:20:57;;;;;;;13.30;9.57;;;20.40;99.90;;;;;;5041993;28;20044;-67
2022/08/14 04:23:23;;;;;;;14.20;10.82;;;20.40;99.90;;;;;;5052911;28;20041;-66
2022/08/14 04:25:52;;;;;;;14.48;10.35;;;20.40;99.90;;;;;;5036411;28;20509;-67
2022/08/14 04:28:18;;;;;;;13.57;9.60;;;20.30;99.90;;;;;;5054172;28;20446;-68
2022/08/14 04:30:47;;;;;;;11.15;9.93;;;20.30;99.90;;;;;;5054135;28;20130;-67
2022/08/14 04:33:15;;;;;;;15.00;10.30;;;20.30;99.90;;;;;;5036321;28;20044;-69
2022/08/14 04:35:40;;;;;;;12.00;9.70;;;20.30;99.90;;;;;;5053790;28;20517;-68
2022/08/14 04:43:40;;;;;;;12.23;9.57;;;20.20;99.90;;;;;;5053729;28;20128;-67
2022/08/14 04:46:09;;;;;;;13.30;10.15;;;20.10;99.90;;;;;;5053852;28;20044;-68
2022/08/14 04:48:35;;;;;;;11.52;9.00;;;20.20;99.90;;;;;;5053753;28;20049;-67
2022/08/14 04:51:04;;;;;;;11.13;9.48;;;20.20;99.90;;;;;;5053849;28;20045;-67
2022/08/14 04:53:32;;;;;;;17.40;10.55;;;20.10;99.90;;;;;;5035478;28;20094;-68
2022/08/14 04:55:58;;;;;;;13.05;9.52;;;20.10;99.90;;;;;;5002949;28;20053;-67
2022/08/14 04:58:27;;;;;;;14.15;9.75;;;20.10;99.90;;;;;;5054188;28;20041;-68
2022/08/14 05:00:55;;;;;;;13.73;10.07;;;20.10;99.90;;;;;;5053263;28;20052;-67
2022/08/14 05:03:23;;;;;;;12.20;9.75;;;20.10;99.90;;;;;;5018699;28;20049;-68
2022/08/14 05:05:51;;;;;;;17.17;10.75;;;20.10;99.90;;;;;;5053424;28;20045;-67
2022/08/14 05:08:17;;;;;;;11.30;9.45;;;20.10;99.90;;;;;;5053500;28;20048;-68
2022/08/14 05:10:51;;;;;;;12.45;10.20;;;20.20;99.90;;;;;;5052372;28;20087;-67
2022/08/14 05:13:22;;;;;;;15.45;9.98;;;20.20;99.90;;;;;;5053267;28;20524;-68
2022/08/14 05:15:48;;;;;;;17.70;10.10;;;20.20;99.90;;;;;;5035202;28;20041;-68
2022/08/14 05:18:23;;;;;;;12.45;10.32;;;20.20;99.90;;;;;;5035810;28;20041;-67
2022/08/14 05:20:51;;;;;;;15.00;10.20;;;20.20;99.90;;;;;;5053238;28;20124;-68
2022/08/14 05:23:26;;;;;;;17.20;9.95;;;20.20;99.90;;;;;;5051518;28;20045;-68
2022/08/14 05:25:58;;;;;;;11.38;9.68;;;20.20;99.90;;;;;;5035261;28;20111;-67
2022/08/14 05:28:26;;;;;;;18.80;10.50;;;20.30;99.90;;;;;;5051694;28;20037;-68
2022/08/14 05:30:57;;;;;;;12.25;10.07;;;20.30;99.90;;;;;;5052551;28;20048;-67
2022/08/14 05:33:27;;;;;;;11.13;8.98;;;20.30;99.90;;;;;;5053330;28;20398;-68
2022/08/14 05:36:00;;;;;;;11.20;9.23;;;20.40;99.90;;;;;;5036167;28;20084;-68
2022/08/14 05:38:32;;;;;;;13.13;9.85;;;20.50;99.90;;;;;;5054639;28;20463;-69
2022/08/14 05:41:18;;;;;;;12.73;9.85;;;20.50;99.90;;;;;;5072624;28;20055;-68
2022/08/14 05:43:49;;;;;;;12.50;9.70;;;20.60;99.90;;;;;;5053245;28;20503;-66
2022/08/14 05:46:17;;;;;;;11.52;10.32;;;20.70;99.90;;;;;;5034404;28;20041;-68
2022/08/14 05:48:48;;;;;;;12.32;9.38;;;20.80;99.90;;;;;;5052167;28;20503;-68
2022/08/14 05:51:14;;;;;;;13.40;9.52;;;20.80;99.90;;;;;;5052740;28;20080;-67
2022/08/14 05:53:45;;;;;;;12.52;9.35;;;20.90;99.90;;;;;;5052558;28;20087;-68
2022/08/14 05:56:11;;;;;;;10.40;9.27;;;21.00;99.90;;;;;;5052451;28;20392;-68
2022/08/14 05:58:37;;;;;;;13.43;9.45;;;21.10;99.90;;;;;;5052290;28;20094;-68
2022/08/14 06:01:03;;;;;;;14.57;10.25;;;21.20;99.90;;;;;;5052207;28;20410;-68
2022/08/14 06:03:29;;;;;;;13.65;9.20;;;21.20;99.90;;;;;;5052657;28;20033;-67
2022/08/14 06:05:55;;;;;;;16.65;9.70;;;21.30;99.90;;;;;;5034664;28;20404;-68
2022/08/14 06:08:29;;;;;;;12.25;9.57;;;21.40;99.90;;;;;;5051151;28;20044;-68
2022/08/14 06:11:02;;;;;;;9.68;8.60;;;21.50;99.90;;;;;;5034391;28;20187;-66
2022/08/14 06:13:36;;;;;;;11.27;8.43;;;21.60;99.90;;;;;;5052582;28;20049;-67
2022/08/14 06:16:02;;;;;;;11.38;8.80;;;21.70;99.90;;;;;;5052404;28;20045;-68
2022/08/14 06:18:27;;;;;;;21.27;8.90;;;21.80;99.90;;;;;;5052202;28;20123;-66
2022/08/14 06:20:53;;;;;;;11.85;8.52;;;22.00;99.90;;;;;;5060737;28;20147;-68
2022/08/14 06:23:23;;;;;;;12.40;8.88;;;22.10;99.90;;;;;;5049462;28;20123;-68
2022/08/14 06:25:49;;;;;;;12.95;9.30;;;22.30;99.90;;;;;;5052413;28;20095;-68
2022/08/14 06:28:16;;;;;;;10.52;8.70;;;22.40;99.90;;;;;;5052038;28;20041;-68
2022/08/14 06:30:42;;;;;;;14.07;8.68;;;22.60;99.90;;;;;;5052466;28;20048;-68
2022/08/14 06:33:08;;;;;;;13.52;9.20;;;22.90;99.90;;;;;;5050780;28;20053;-68
2022/08/14 06:35:33;;;;;;;14.30;9.43;;;23.20;99.90;;;;;;5050635;28;20041;-67
2022/08/14 06:38:00;;;;;;;10.00;8.90;;;23.70;99.90;;;;;;5074351;28;20048;-68
2022/08/14 06:40:36;;;;;;;10.30;8.70;;;24.20;99.90;;;;;;5061407;28;20053;-69
2022/08/14 06:43:07;;;;;;;12.65;8.10;;;24.60;99.90;;;;;;5056072;28;20047;-67
2022/08/14 06:45:35;;;;;;;10.52;8.02;;;25.10;99.50;;;;;;5037929;28;20044;-67
2022/08/14 06:48:01;;;;;;;14.52;8.68;;;25.50;98.80;;;;;;5055827;28;20122;-68
2022/08/14 06:50:29;;;;;;;9.63;8.25;;;25.70;98.10;;;;;;5056209;28;20049;-66
2022/08/14 06:52:58;;;;;;;12.60;8.10;;;25.50;97.40;;;;;;5055809;28;20426;-67
2022/08/14 06:55:24;;;;;;;13.50;8.27;;;25.30;97.70;;;;;;5055763;28;20041;-68
2022/08/14 06:57:51;;;;;;;9.63;7.85;;;25.10;97.80;;;;;;5055698;28;20045;-68
2022/08/14 07:00:25;;;;;;;9.25;7.88;;;25.00;98.00;;;;;;5037898;28;20539;-67
2022/08/14 07:05:45;;;;;;;11.93;7.82;;;24.80;98.10;;;;;;5058022;28;20131;-67
2022/08/14 07:08:26;;;;;;;11.07;7.53;;;24.70;98.20;;;;;;5068528;28;20398;-68
2022/08/14 07:10:54;;;;;;;13.77;7.78;;;24.70;98.20;;;;;;5037672;28;20107;-68
2022/08/14 07:13:21;;;;;;;9.07;7.40;;;24.70;98.10;;;;;;5038500;28;20441;-67
2022/08/14 07:15:49;;;;;;;9.85;7.47;;;24.80;98.10;;;;;;5038621;28;20541;-67
2022/08/14 07:18:36;;;;;;;7.85;7.03;;;24.80;97.90;;;;;;5055473;28;20116;-67
2022/08/14 07:21:05;;;;;;;11.05;7.32;;;24.70;97.60;;;;;;5055855;28;20095;-67
2022/08/14 07:23:34;;;;;;;8.35;6.13;;;24.80;97.70;;;;;;5055534;28;20052;-67
2022/08/14 07:26:01;;;;;;;8.25;6.53;;;24.90;97.80;;;;;;5053959;28;20056;-68
2022/08/14 07:28:30;;;;;;;8.02;6.45;;;24.90;97.70;;;;;;5037843;28;20029;-68
2022/08/14 07:30:58;;;;;;;11.93;7.18;;;25.10;97.50;;;;;;5054823;28;20041;-68
2022/08/14 07:33:26;;;;;;;12.15;7.32;;;25.20;97.20;;;;;;5054942;28;20544;-67
2022/08/14 07:35:53;;;;;;;11.65;7.18;;;25.20;97.00;;;;;;5038656;28;20052;-67
2022/08/14 07:38:20;;;;;;;11.43;6.80;;;25.30;97.00;;;;;;5056918;28;20071;-67
2022/08/14 07:40:47;;;;;;;6.85;6.15;;;25.40;96.90;;;;;;5057085;28;20044;-67
2022/08/14 07:43:13;;;;;;;7.47;6.60;;;25.50;96.80;;;;;;5040537;28;20410;-68
2022/08/14 07:45:40;;;;;;;9.35;6.68;;;25.70;97.00;;;;;;5023573;28;20056;-68
2022/08/14 07:48:09;;;;;;;8.43;6.57;;;25.80;96.60;;;;;;5054780;28;20052;-69
2022/08/14 07:50:35;;;;;;;9.98;6.28;;;25.90;96.40;;;;;;5054611;28;20138;-67
2022/08/14 07:53:02;;;;;;;8.35;6.60;;;26.10;96.20;;;;;;5037040;28;20049;-67
2022/08/14 07:55:28;;;;;;;10.85;6.20;;;26.20;96.30;;;;;;5054681;28;20041;-68
2022/08/14 07:57:54;;;;;;;8.48;6.13;;;26.40;96.00;;;;;;5054923;28;20044;-67
2022/08/14 08:00:21;;;;;;;9.65;6.60;;;26.50;95.70;;;;;;5054665;28;20045;-66
2022/08/14 08:02:50;;;;;;;8.10;5.85;;;26.60;95.50;;;;;;5036727;28;20041;-67
2022/08/14 08:05:17;;;;;;;10.63;6.28;;;26.70;95.20;;;;;;5054221;28;20402;-68
2022/08/14 08:07:45;;;;;;;11.32;6.07;;;26.80;95.00;;;;;;5054996;28;20045;-67
2022/08/14 08:10:30;;;;;;;;;;;26.90;94.60;;;;;;5037010;28;20498;-66
2022/08/14 08:13:12;;;;;;;9.73;6.30;;;27.00;94.40;;;;;;5065276;28;19940;-67
2022/08/14 08:15:52;;;;;;;5.93;5.30;;;27.10;94.00;;;;;;5036563;28;20076;-69
2022/08/14 08:18:19;;;;;;;9.20;6.43;;;27.20;93.70;;;;;;5055139;28;20056;-68
2022/08/14 08:20:53;;;;;;;9.05;6.32;;;27.20;93.40;;;;;;5037116;28;20487;-69
2022/08/14 08:23:20;;;;;;;10.70;5.85;;;27.30;93.00;;;;;;5037307;28;20049;-67
2022/08/14 08:25:47;;;;;;;;;;;27.30;93.10;;;;;;5055050;28;20490;-68
2022/08/14 08:28:20;;;;;;;7.15;5.93;;;27.30;93.00;;;;;;5053382;28;19931;-68
2022/08/14 08:30:57;;;;;;;7.00;5.50;;;27.30;93.10;;;;;;5054824;28;20037;-68
2022/08/14 08:33:26;;;;;;;6.90;6.20;;;27.50;92.60;;;;;;5054740;28;20091;-68
2022/08/14 08:35:56;;;;;;;8.40;5.70;;;27.60;92.30;;;;;;5055292;28;20490;-67
2022/08/14 08:38:24;;;;;;;9.95;5.57;;;27.70;92.20;;;;;;5056215;28;20059;-67
2022/08/14 08:40:55;;;;;;;11.90;5.65;;;27.80;92.10;;;;;;5056442;28;20089;-65
2022/08/14 08:43:29;;;;;;;7.22;5.13;;;27.90;91.80;;;;;;5054769;28;20045;-68
2022/08/14 08:46:04;;;;;;;7.85;5.90;;;28.00;91.20;;;;;;5036098;28;20467;-68
2022/08/14 08:48:42;;;;;;;10.15;5.68;;;28.00;91.30;;;;;;5019427;28;20521;-67
2022/08/14 08:51:18;;;;;;;8.65;5.85;;;28.10;91.20;;;;;;5035874;28;20056;-68
2022/08/14 08:53:43;;;;;;;8.10;4.82;;;28.30;91.30;;;;;;5035715;28;20045;-67
2022/08/14 08:56:09;;;;;;;8.30;5.30;;;28.40;91.00;;;;;;5053308;28;20057;-67
2022/08/14 08:58:36;;;;;;;7.60;5.40;;;28.50;90.50;;;;;;5053100;28;20052;-67
2022/08/14 09:01:02;;;;;;;;;;;28.50;90.00;;;;;;5036030;28;20052;-69
2022/08/14 09:03:29;;;;;;;7.15;5.60;;;28.60;89.40;;;;;;5035234;28;19920;-67
2022/08/14 09:06:01;;;;;;;6.83;5.17;;;28.60;89.60;;;;;;5053388;28;20120;-68
2022/08/14 09:08:30;;;;;;;8.90;4.93;;;28.70;88.30;;;;;;5053538;28;20304;-67
2022/08/14 09:10:58;;;;;;;13.80;5.38;;;28.70;88.30;;;;;;5053162;28;20040;-69
2022/08/14 09:13:25;;;;;;;11.20;5.15;;;28.70;87.60;;;;;;5018640;28;20435;-67
2022/08/14 09:15:54;;;;;;;12.98;5.13;;;28.70;87.70;;;;;;5053328;28;20041;-68
2022/08/14 09:18:21;;;;;;;7.78;5.00;;;28.80;87.60;;;;;;5041941;28;20574;-67
2022/08/14 09:20:49;;;;;;;6.32;4.68;;;28.90;87.20;;;;;;5052941;28;20052;-67
2022/08/14 09:23:15;;;;;;;7.32;4.78;;;29.00;86.80;;;;;;5053494;28;20415;-66
2022/08/14 09:25:44;;;;;;;5.75;4.43;;;29.10;86.00;;;;;;5053128;28;20045;-67
2022/08/14 09:28:12;;;;;;;6.18;4.53;;;29.10;85.80;;;;;;5034830;28;20049;-68
2022/08/14 09:30:42;;;;;;;;;;;29.30;85.40;;;;;;5019059;28;20559;-68
2022/08/14 09:33:52;;;;;;;8.43;4.32;;;29.30;84.50;;;;;;5018503;28;19921;-67
2022/08/14 09:36:26;;;;;;;5.35;4.70;;;29.50;84.60;;;;;;4970885;28;20046;-67
2022/08/14 09:39:26;;;;;;;8.02;4.75;;;29.70;84.20;;;;;;4948512;29;20106;-67
2022/08/14 09:42:05;;;;;;;7.13;4.95;;;29.80;83.70;;;;;;5012379;28;20053;-67
2022/08/14 09:45:01;;;;;;;8.32;4.90;;;29.80;83.50;;;;;;5038714;28;20045;-66
2022/08/14 09:47:45;;;;;;;7.80;4.80;;;29.90;82.60;;;;;;5018399;28;20568;-67
2022/08/14 09:50:28;;;;;;;9.00;5.30;;;29.90;82.40;;;;;;5052685;28;20094;-68
2022/08/14 09:53:06;;;;;;;6.95;5.15;;;29.80;81.50;;;;;;5051866;28;20083;-67
2022/08/14 09:55:34;;;;;;;7.82;4.95;;;29.70;82.00;;;;;;5052051;28;20037;-67
2022/08/14 09:58:19;;;;;;;6.70;4.95;;;29.60;82.30;;;;;;5052295;28;20491;-66
2022/08/14 10:00:59;;;;;;;6.03;4.78;;;29.60;83.30;;;;;;5014862;28;20053;-67
2022/08/14 10:03:32;;;;;;;8.20;4.65;;;29.70;82.60;;;;;;5021246;28;20046;-67
2022/08/14 10:06:17;;;;;;;6.75;5.32;;;29.80;81.70;;;;;;5036463;28;20045;-66
2022/08/14 10:09:05;;;;;;;8.52;5.10;;;29.90;80.40;;;;;;5032638;28;20494;-67
2022/08/14 10:11:36;;;;;;;8.52;4.68;;;29.90;81.20;;;;;;5032988;28;20447;-68
2022/08/14 10:14:16;;;;;;;6.95;4.80;;;30.00;81.70;;;;;;5034339;28;20041;-68
2022/08/14 10:16:45;;;;;;;6.32;4.80;;;30.20;79.90;;;;;;5051993;28;20049;-66
2022/08/14 10:19:13;;;;;;;8.68;5.07;;;30.20;80.00;;;;;;5034015;28;20095;-67
2022/08/14 10:21:42;;;;;;;6.18;4.85;;;30.40;80.30;;;;;;5034374;28;20126;-66
2022/08/14 10:24:26;;;;;;;6.20;4.57;;;30.70;80.30;;;;;;5051069;28;20118;-69
2022/08/14 10:26:56;;;;;;;5.30;4.65;;;31.00;78.90;;;;;;5050504;28;20149;-67
2022/08/14 10:29:39;;;;;;;7.78;5.13;;;30.90;78.50;;;;;;5051870;28;20049;-67
2022/08/14 10:32:09;;;;;;;8.25;4.80;;;30.70;77.60;;;;;;5034094;28;20124;-66
2022/08/14 10:34:41;;;;;;;9.20;4.40;;;30.70;78.40;;;;;;5051996;28;20114;-67
2022/08/14 10:37:18;;;;;;;5.68;4.70;;;30.80;77.40;;;;;;5051956;28;20045;-67
2022/08/14 10:40:01;;;;;;;5.78;4.35;;;31.00;77.40;;;;;;5067008;28;20056;-65
2022/08/14 10:42:36;;;;;;;6.40;4.40;;;31.20;77.50;;;;;;5054984;28;20072;-66
2022/08/14 10:45:02;;;;;;;7.28;4.50;;;31.60;77.50;;;;;;5052091;28;20491;-67
2022/08/14 10:47:39;;;;;;;5.18;3.90;;;31.80;75.90;;;;;;5051162;28;20401;-68
2022/08/14 10:50:09;;;;;;;7.05;4.53;;;32.00;75.10;;;;;;5051918;28;20121;-67
2022/08/14 10:52:37;;;;;;;7.68;4.00;;;32.00;74.30;;;;;;5052279;28;20041;-67
2022/08/14 10:55:14;;;;;;;5.15;3.80;;;32.30;74.70;;;;;;5034470;28;20403;-66
2022/08/14 10:57:53;;;;;;;8.73;4.10;;;32.50;73.50;;;;;;5052356;28;20060;-66
2022/08/14 11:00:25;;;;;;;8.02;3.97;;;32.50;72.30;;;;;;5052673;28;20072;-68
2022/08/14 11:03:12;;;;;;;6.55;4.22;;;32.50;73.10;;;;;;5034266;28;20099;-68
2022/08/14 11:05:49;;;;;;;6.03;4.07;;;32.50;71.90;;;;;;5051952;28;20045;-68
2022/08/14 11:08:18;;;;;;;4.75;3.90;;;32.70;71.50;;;;;;5034063;28;20153;-66
2022/08/14 11:10:56;;;;;;;4.63;4.15;;;32.70;72.50;;;;;;5052122;28;20341;-67
2022/08/14 11:13:27;;;;;;;4.32;3.92;;;33.00;70.90;;;;;;5051908;28;20143;-68
2022/08/14 11:15:55;;;;;;;8.18;4.20;;;32.70;70.90;;;;;;5052056;28;20554;-67
2022/08/14 11:18:21;;;;;;;5.45;3.47;;;32.70;70.80;;;;;;5051851;28;20372;-66
2022/08/14 11:20:55;;;;;;;5.28;3.58;;;32.80;71.10;;;;;;5052128;28;20045;-67
2022/08/14 11:23:32;;;;;;;8.30;4.00;;;33.00;70.30;;;;;;5054503;28;20510;-66
2022/08/14 11:25:59;;;;;;;7.10;3.80;;;33.40;69.60;;;;;;5055445;28;20517;-66
2022/08/14 11:28:32;;;;;;;4.97;3.80;;;33.40;68.70;;;;;;5046568;28;20487;-67
2022/08/14 11:31:01;;;;;;;7.15;3.90;;;33.50;68.90;;;;;;5054572;28;20457;-67
2022/08/14 11:33:31;;;;;;;5.13;4.28;;;33.40;68.20;;;;;;5054875;28;20121;-68
2022/08/14 11:36:03;;;;;;;10.93;3.95;;;33.60;68.90;;;;;;5056858;28;20045;-67
2022/08/14 11:38:36;;;;;;;4.68;4.25;;;33.70;68.60;;;;;;5022304;28;20044;-67
2022/08/14 11:41:05;;;;;;;6.40;3.88;;;34.00;66.80;;;;;;5036564;28;20392;-67
2022/08/14 11:43:30;;;;;;;6.20;4.05;;;33.90;66.90;;;;;;5041427;28;20433;-69
2022/08/14 11:45:57;;;;;;;5.35;4.25;;;34.10;67.10;;;;;;5054513;28;20072;-67
2022/08/14 11:48:24;;;;;;;8.15;4.25;;;34.00;66.30;;;;;;5040580;28;20076;-66
2022/08/14 11:50:53;;;;;;;6.03;3.88;;;34.10;65.90;;;;;;5053453;28;20036;-68
2022/08/14 11:53:29;;;;;;;9.50;4.85;;;34.10;66.00;;;;;;5037543;28;20457;-67
2022/08/14 11:55:57;;;;;;;5.63;4.20;;;34.20;65.60;;;;;;5036756;28;20051;-66
2022/08/14 11:58:31;;;;;;;7.78;4.07;;;34.30;65.40;;;;;;5054525;28;20388;-67
2022/08/14 12:01:06;;;;;;;11.15;4.50;;;34.30;65.10;;;;;;5038372;28;20109;-67
2022/08/14 12:03:45;;;;;;;7.63;4.10;;;34.40;63.70;;;;;;5074843;28;20047;-67
2022/08/14 12:06:18;;;;;;;6.80;4.30;;;34.50;63.70;;;;;;5056479;28;20040;-67
2022/08/14 12:08:49;;;;;;;6.10;4.03;;;34.40;63.90;;;;;;5068945;28;20075;-67
2022/08/14 12:11:19;;;;;;;8.75;4.90;;;34.50;64.50;;;;;;5074049;28;20083;-67
2022/08/14 12:13:45;;;;;;;8.50;4.80;;;34.60;64.00;;;;;;5054473;28;20049;-67
2022/08/14 12:16:12;;;;;;;;;;;34.30;63.40;;;;;;5036547;28;20052;-66
2022/08/14 12:18:40;;;;;;;5.88;4.60;;;34.30;63.80;;;;;;5054734;28;19920;-67
2022/08/14 12:21:13;;;;;;;9.23;4.65;;;34.40;64.40;;;;;;5054178;28;20532;-66
2022/08/14 12:23:40;;;;;;;9.25;4.35;;;34.40;63.60;;;;;;5053965;28;20088;-67
2022/08/14 12:26:16;;;;;;;;;;;34.40;63.50;;;;;;5054738;28;20037;-68
2022/08/14 12:28:43;;;;;;;6.07;4.43;;;34.50;62.50;;;;;;5054488;28;19921;-71
2022/08/14 12:31:20;;;;;;;5.35;4.13;;;34.60;62.30;;;;;;5036129;28;20136;-67
2022/08/14 12:34:00;;;;;;;5.70;4.65;;;34.70;61.80;;;;;;5036062;28;20076;-69
2022/08/14 12:36:29;;;;;;;7.13;4.10;;;34.60;61.90;;;;;;5041572;28;20119;-65
2022/08/14 12:38:56;;;;;;;9.95;4.38;;;34.70;62.20;;;;;;5038114;28;20457;-68
2022/08/14 12:41:28;;;;;;;5.97;4.45;;;34.70;61.60;;;;;;5035969;28;20049;-67
2022/08/14 12:44:05;;;;;;;8.88;4.25;;;34.80;61.50;;;;;;5036536;28;20048;-67
2022/08/14 12:46:37;;;;;;;7.63;4.38;;;34.80;60.70;;;;;;5054044;28;20040;-67
2022/08/14 12:49:09;;;;;;;5.97;4.80;;;34.70;61.10;;;;;;5035950;28;20056;-68
2022/08/14 12:51:35;;;;;;;6.47;4.68;;;34.40;60.90;;;;;;5054512;28;20052;-66
2022/08/14 12:54:16;;;;;;;8.70;4.60;;;34.10;61.50;;;;;;5054217;28;20041;-67
2022/08/14 12:56:42;;;;;;;8.63;4.85;;;34.00;61.40;;;;;;5053700;28;20075;-65
2022/08/14 12:59:08;;;;;;;5.30;4.28;;;34.00;61.50;;;;;;5053338;28;20376;-67
2022/08/14 13:01:35;;;;;;;6.00;4.80;;;33.70;61.40;;;;;;5035881;28;20041;-67
2022/08/14 13:04:11;;;;;;;6.30;4.72;;;33.40;62.30;;;;;;5053647;28;20041;-68
2022/08/14 13:06:40;;;;;;;5.47;4.68;;;33.60;62.70;;;;;;5035603;28;20048;-66
2022/08/14 13:09:09;;;;;;;7.13;4.70;;;33.80;62.80;;;;;;5053427;28;20049;-66
2022/08/14 13:11:43;;;;;;;5.60;4.28;;;34.10;62.30;;;;;;5052804;28;20048;-67